sensor_id;sensor_type;location;lat;lon;timestamp;temperature;humidity
46356;DHT22;32066;49.474;11.106;2023-04-26T00:00:09;12.10;70.20
46356;DHT22;32066;49.474;11.106;2023-04-26T00:02:39;12.00;70.20
46356;DHT22;32066;49.474;11.106;2023-04-26T00:05:08;12.00;70.30
46356;DHT22;32066;49.474;11.106;2023-04-26T00:07:36;12.00;70.40
46356;DHT22;32066;49.474;11.106;2023-04-26T00:10:06;12.00;70.30
46356;DHT22;32066;49.474;11.106;2023-04-26T00:12:37;12.00;70.30
46356;DHT22;32066;49.474;11.106;2023-04-26T00:15:07;11.90;70.20
46356;DHT22;32066;49.474;11.106;2023-04-26T00:17:36;11.90;70.10
46356;DHT22;32066;49.474;11.106;2023-04-26T00:20:06;11.90;70.20
46356;DHT22;32066;49.474;11.106;2023-04-26T00:22:37;11.90;70.40
46356;DHT22;32066;49.474;11.106;2023-04-26T00:25:06;11.90;70.10
46356;DHT22;32066;49.474;11.106;2023-04-26T00:27:38;11.80;70.10
46356;DHT22;32066;49.474;11.106;2023-04-26T00:30:08;11.70;70.40
46356;DHT22;32066;49.474;11.106;2023-04-26T00:32:36;11.60;70.50
46356;DHT22;32066;49.474;11.106;2023-04-26T00:35:07;11.70;70.30
46356;DHT22;32066;49.474;11.106;2023-04-26T00:37:36;11.70;70.00
46356;DHT22;32066;49.474;11.106;2023-04-26T00:40:06;11.70;69.80
46356;DHT22;32066;49.474;11.106;2023-04-26T00:42:38;11.80;69.60
46356;DHT22;32066;49.474;11.106;2023-04-26T00:45:07;11.80;69.60
46356;DHT22;32066;49.474;11.106;2023-04-26T00:47:36;11.80;69.80
46356;DHT22;32066;49.474;11.106;2023-04-26T00:50:06;11.70;70.60
46356;DHT22;32066;49.474;11.106;2023-04-26T00:52:36;11.80;69.80
46356;DHT22;32066;49.474;11.106;2023-04-26T00:55:06;11.80;69.90
46356;DHT22;32066;49.474;11.106;2023-04-26T00:57:38;11.70;70.10
46356;DHT22;32066;49.474;11.106;2023-04-26T01:00:08;11.60;70.10
46356;DHT22;32066;49.474;11.106;2023-04-26T01:02:37;11.60;70.10
46356;DHT22;32066;49.474;11.106;2023-04-26T01:05:06;11.50;70.10
46356;DHT22;32066;49.474;11.106;2023-04-26T01:07:36;11.60;70.10
46356;DHT22;32066;49.474;11.106;2023-04-26T01:10:06;11.60;69.50
46356;DHT22;32066;49.474;11.106;2023-04-26T01:12:38;11.60;69.40
46356;DHT22;32066;49.474;11.106;2023-04-26T01:15:09;11.70;69.30
46356;DHT22;32066;49.474;11.106;2023-04-26T01:17:38;11.70;69.30
46356;DHT22;32066;49.474;11.106;2023-04-26T01:20:09;11.70;69.20
46356;DHT22;32066;49.474;11.106;2023-04-26T01:22:40;11.70;69.10
46356;DHT22;32066;49.474;11.106;2023-04-26T01:25:11;11.70;69.10
46356;DHT22;32066;49.474;11.106;2023-04-26T01:27:40;11.70;69.80
46356;DHT22;32066;49.474;11.106;2023-04-26T01:30:09;11.60;69.00
46356;DHT22;32066;49.474;11.106;2023-04-26T01:32:38;11.60;69.10
46356;DHT22;32066;49.474;11.106;2023-04-26T01:35:07;11.60;69.20
46356;DHT22;32066;49.474;11.106;2023-04-26T01:37:36;11.60;69.20
46356;DHT22;32066;49.474;11.106;2023-04-26T01:40:09;11.60;69.20
46356;DHT22;32066;49.474;11.106;2023-04-26T01:42:38;11.50;69.20
46356;DHT22;32066;49.474;11.106;2023-04-26T01:45:07;11.60;69.40
46356;DHT22;32066;49.474;11.106;2023-04-26T01:47:54;11.50;69.30
46356;DHT22;32066;49.474;11.106;2023-04-26T01:50:23;11.50;69.20
46356;DHT22;32066;49.474;11.106;2023-04-26T01:52:52;11.50;69.20
46356;DHT22;32066;49.474;11.106;2023-04-26T01:55:23;11.50;69.20
46356;DHT22;32066;49.474;11.106;2023-04-26T01:57:52;11.50;69.20
46356;DHT22;32066;49.474;11.106;2023-04-26T02:00:20;11.40;69.20
46356;DHT22;32066;49.474;11.106;2023-04-26T02:02:49;11.40;69.10
46356;DHT22;32066;49.474;11.106;2023-04-26T02:05:22;11.40;69.00
46356;DHT22;32066;49.474;11.106;2023-04-26T02:07:51;11.40;69.20
46356;DHT22;32066;49.474;11.106;2023-04-26T02:10:20;11.40;69.10
46356;DHT22;32066;49.474;11.106;2023-04-26T02:12:52;11.40;69.00
46356;DHT22;32066;49.474;11.106;2023-04-26T02:15:20;11.40;69.00
46356;DHT22;32066;49.474;11.106;2023-04-26T02:17:49;11.30;69.00
46356;DHT22;32066;49.474;11.106;2023-04-26T02:20:19;11.40;69.10
46356;DHT22;32066;49.474;11.106;2023-04-26T02:22:48;11.40;69.00
46356;DHT22;32066;49.474;11.106;2023-04-26T02:25:16;11.30;69.10
46356;DHT22;32066;49.474;11.106;2023-04-26T02:27:46;11.30;69.10
46356;DHT22;32066;49.474;11.106;2023-04-26T02:30:17;11.30;69.20
46356;DHT22;32066;49.474;11.106;2023-04-26T02:32:46;11.20;69.00
46356;DHT22;32066;49.474;11.106;2023-04-26T02:35:17;11.20;69.10
46356;DHT22;32066;49.474;11.106;2023-04-26T02:37:45;11.20;69.10
46356;DHT22;32066;49.474;11.106;2023-04-26T02:40:18;11.20;69.30
46356;DHT22;32066;49.474;11.106;2023-04-26T02:42:47;11.20;69.70
46356;DHT22;32066;49.474;11.106;2023-04-26T02:45:19;11.10;69.70
46356;DHT22;32066;49.474;11.106;2023-04-26T02:47:47;11.10;69.50
46356;DHT22;32066;49.474;11.106;2023-04-26T02:50:16;11.10;69.50
46356;DHT22;32066;49.474;11.106;2023-04-26T02:52:45;11.00;69.80
46356;DHT22;32066;49.474;11.106;2023-04-26T02:55:14;11.00;70.00
46356;DHT22;32066;49.474;11.106;2023-04-26T02:57:43;11.00;69.80
46356;DHT22;32066;49.474;11.106;2023-04-26T03:00:12;11.00;69.80
46356;DHT22;32066;49.474;11.106;2023-04-26T03:02:44;11.00;69.60
46356;DHT22;32066;49.474;11.106;2023-04-26T03:05:13;11.00;69.60
46356;DHT22;32066;49.474;11.106;2023-04-26T03:07:42;11.00;69.70
46356;DHT22;32066;49.474;11.106;2023-04-26T03:10:10;10.90;70.10
46356;DHT22;32066;49.474;11.106;2023-04-26T03:12:40;10.80;71.00
46356;DHT22;32066;49.474;11.106;2023-04-26T03:15:09;10.70;70.60
46356;DHT22;32066;49.474;11.106;2023-04-26T03:17:42;10.70;70.80
46356;DHT22;32066;49.474;11.106;2023-04-26T03:20:11;10.70;70.80
46356;DHT22;32066;49.474;11.106;2023-04-26T03:22:40;10.60;70.80
46356;DHT22;32066;49.474;11.106;2023-04-26T03:25:09;10.60;71.00
46356;DHT22;32066;49.474;11.106;2023-04-26T03:27:39;10.50;71.00
46356;DHT22;32066;49.474;11.106;2023-04-26T03:30:09;10.60;71.10
46356;DHT22;32066;49.474;11.106;2023-04-26T03:32:39;10.60;71.30
46356;DHT22;32066;49.474;11.106;2023-04-26T03:35:10;10.50;71.50
46356;DHT22;32066;49.474;11.106;2023-04-26T03:37:39;10.50;72.30
46356;DHT22;32066;49.474;11.106;2023-04-26T03:40:11;10.40;72.70
46356;DHT22;32066;49.474;11.106;2023-04-26T03:42:41;10.40;72.90
46356;DHT22;32066;49.474;11.106;2023-04-26T03:45:10;10.50;72.60
46356;DHT22;32066;49.474;11.106;2023-04-26T03:47:39;10.40;72.30
46356;DHT22;32066;49.474;11.106;2023-04-26T03:50:11;10.40;72.20
46356;DHT22;32066;49.474;11.106;2023-04-26T03:52:39;10.50;72.00
46356;DHT22;32066;49.474;11.106;2023-04-26T03:55:08;10.50;71.80
46356;DHT22;32066;49.474;11.106;2023-04-26T03:57:37;10.50;71.70
46356;DHT22;32066;49.474;11.106;2023-04-26T04:00:07;10.50;71.70
46356;DHT22;32066;49.474;11.106;2023-04-26T04:02:41;10.50;71.50
46356;DHT22;32066;49.474;11.106;2023-04-26T04:05:17;10.60;71.50
46356;DHT22;32066;49.474;11.106;2023-04-26T04:07:46;10.60;71.40
46356;DHT22;32066;49.474;11.106;2023-04-26T04:10:15;10.60;71.20
46356;DHT22;32066;49.474;11.106;2023-04-26T04:12:44;10.60;71.10
46356;DHT22;32066;49.474;11.106;2023-04-26T04:15:13;10.50;71.10
46356;DHT22;32066;49.474;11.106;2023-04-26T04:17:45;10.50;71.10
46356;DHT22;32066;49.474;11.106;2023-04-26T04:20:17;10.40;71.20
46356;DHT22;32066;49.474;11.106;2023-04-26T04:22:46;10.40;71.10
46356;DHT22;32066;49.474;11.106;2023-04-26T04:25:16;10.40;71.00
46356;DHT22;32066;49.474;11.106;2023-04-26T04:27:46;10.40;70.90
46356;DHT22;32066;49.474;11.106;2023-04-26T04:30:16;10.40;71.00
46356;DHT22;32066;49.474;11.106;2023-04-26T04:32:45;10.40;70.90
46356;DHT22;32066;49.474;11.106;2023-04-26T04:35:18;10.50;70.90
46356;DHT22;32066;49.474;11.106;2023-04-26T04:37:47;10.50;70.90
46356;DHT22;32066;49.474;11.106;2023-04-26T04:40:17;10.50;70.90
46356;DHT22;32066;49.474;11.106;2023-04-26T04:42:46;10.50;70.90
46356;DHT22;32066;49.474;11.106;2023-04-26T04:45:16;11.00;99.90
46356;DHT22;32066;49.474;11.106;2023-04-26T04:47:47;10.70;78.50
46356;DHT22;32066;49.474;11.106;2023-04-26T04:50:18;10.00;75.80
46356;DHT22;32066;49.474;11.106;2023-04-26T04:52:48;9.70;76.40
46356;DHT22;32066;49.474;11.106;2023-04-26T04:55:17;9.40;76.30
46356;DHT22;32066;49.474;11.106;2023-04-26T04:57:46;9.20;76.90
46356;DHT22;32066;49.474;11.106;2023-04-26T05:00:16;9.10;77.60
46356;DHT22;32066;49.474;11.106;2023-04-26T05:02:58;9.10;77.50
46356;DHT22;32066;49.474;11.106;2023-04-26T05:05:30;9.10;77.60
46356;DHT22;32066;49.474;11.106;2023-04-26T05:07:59;8.90;77.90
46356;DHT22;32066;49.474;11.106;2023-04-26T05:10:28;8.90;77.80
46356;DHT22;32066;49.474;11.106;2023-04-26T05:12:56;8.90;77.60
46356;DHT22;32066;49.474;11.106;2023-04-26T05:15:26;8.90;77.60
46356;DHT22;32066;49.474;11.106;2023-04-26T05:17:54;8.90;77.80
46356;DHT22;32066;49.474;11.106;2023-04-26T05:20:24;8.90;77.80
46356;DHT22;32066;49.474;11.106;2023-04-26T05:22:57;9.00;77.70
46356;DHT22;32066;49.474;11.106;2023-04-26T05:25:25;9.10;77.40
46356;DHT22;32066;49.474;11.106;2023-04-26T05:28:01;9.00;77.20
46356;DHT22;32066;49.474;11.106;2023-04-26T05:30:39;8.90;77.50
46356;DHT22;32066;49.474;11.106;2023-04-26T05:33:26;8.80;77.80
46356;DHT22;32066;49.474;11.106;2023-04-26T05:36:08;8.90;77.90
46356;DHT22;32066;49.474;11.106;2023-04-26T05:38:40;8.90;77.60
46356;DHT22;32066;49.474;11.106;2023-04-26T05:41:08;9.00;77.20
46356;DHT22;32066;49.474;11.106;2023-04-26T05:43:38;9.10;77.20
46356;DHT22;32066;49.474;11.106;2023-04-26T05:46:06;9.00;77.20
46356;DHT22;32066;49.474;11.106;2023-04-26T05:48:35;8.70;77.70
46356;DHT22;32066;49.474;11.106;2023-04-26T05:51:05;9.00;77.50
46356;DHT22;32066;49.474;11.106;2023-04-26T05:53:34;9.10;76.80
46356;DHT22;32066;49.474;11.106;2023-04-26T05:56:06;9.30;76.80
46356;DHT22;32066;49.474;11.106;2023-04-26T05:58:35;9.20;76.60
46356;DHT22;32066;49.474;11.106;2023-04-26T06:01:04;9.40;76.50
46356;DHT22;32066;49.474;11.106;2023-04-26T06:03:33;9.40;76.40
46356;DHT22;32066;49.474;11.106;2023-04-26T06:06:03;9.40;76.20
46356;DHT22;32066;49.474;11.106;2023-04-26T06:08:32;9.50;75.80
46356;DHT22;32066;49.474;11.106;2023-04-26T06:11:01;9.50;75.90
46356;DHT22;32066;49.474;11.106;2023-04-26T06:13:32;9.60;75.80
46356;DHT22;32066;49.474;11.106;2023-04-26T06:16:01;9.70;75.90
46356;DHT22;32066;49.474;11.106;2023-04-26T06:18:29;9.90;75.60
46356;DHT22;32066;49.474;11.106;2023-04-26T06:20:58;10.00;75.20
46356;DHT22;32066;49.474;11.106;2023-04-26T06:23:27;10.00;74.90
46356;DHT22;32066;49.474;11.106;2023-04-26T06:25:55;10.10;74.80
46356;DHT22;32066;49.474;11.106;2023-04-26T06:28:24;10.20;74.30
46356;DHT22;32066;49.474;11.106;2023-04-26T06:30:55;10.20;74.10
46356;DHT22;32066;49.474;11.106;2023-04-26T06:33:25;10.30;74.00
46356;DHT22;32066;49.474;11.106;2023-04-26T06:35:54;10.40;73.80
46356;DHT22;32066;49.474;11.106;2023-04-26T06:38:22;10.40;73.30
46356;DHT22;32066;49.474;11.106;2023-04-26T06:40:51;10.40;73.00
46356;DHT22;32066;49.474;11.106;2023-04-26T06:43:20;10.50;73.10
46356;DHT22;32066;49.474;11.106;2023-04-26T06:46:04;10.50;73.00
46356;DHT22;32066;49.474;11.106;2023-04-26T06:48:33;10.70;73.00
46356;DHT22;32066;49.474;11.106;2023-04-26T06:51:04;10.80;72.50
46356;DHT22;32066;49.474;11.106;2023-04-26T06:53:33;10.80;72.40
46356;DHT22;32066;49.474;11.106;2023-04-26T06:56:02;11.00;72.00
46356;DHT22;32066;49.474;11.106;2023-04-26T06:58:31;11.10;71.80
46356;DHT22;32066;49.474;11.106;2023-04-26T07:00:59;11.20;71.40
46356;DHT22;32066;49.474;11.106;2023-04-26T07:03:30;11.30;70.80
46356;DHT22;32066;49.474;11.106;2023-04-26T07:05:59;11.40;70.30
46356;DHT22;32066;49.474;11.106;2023-04-26T07:08:29;11.50;69.70
46356;DHT22;32066;49.474;11.106;2023-04-26T07:10:57;11.50;69.40
46356;DHT22;32066;49.474;11.106;2023-04-26T07:13:26;11.60;69.10
46356;DHT22;32066;49.474;11.106;2023-04-26T07:15:54;11.70;68.40
46356;DHT22;32066;49.474;11.106;2023-04-26T07:18:24;11.80;68.40
46356;DHT22;32066;49.474;11.106;2023-04-26T07:20:55;11.90;68.30
46356;DHT22;32066;49.474;11.106;2023-04-26T07:23:24;11.90;68.10
46356;DHT22;32066;49.474;11.106;2023-04-26T07:25:52;12.10;67.70
46356;DHT22;32066;49.474;11.106;2023-04-26T07:28:21;12.10;67.60
46356;DHT22;32066;49.474;11.106;2023-04-26T07:30:50;12.20;66.40
46356;DHT22;32066;49.474;11.106;2023-04-26T07:33:18;12.30;65.80
46356;DHT22;32066;49.474;11.106;2023-04-26T07:35:55;12.40;65.40
46356;DHT22;32066;49.474;11.106;2023-04-26T07:38:24;12.60;65.20
46356;DHT22;32066;49.474;11.106;2023-04-26T07:40:54;12.60;65.20
46356;DHT22;32066;49.474;11.106;2023-04-26T07:43:23;12.70;64.80
46356;DHT22;32066;49.474;11.106;2023-04-26T07:45:51;12.80;64.50
46356;DHT22;32066;49.474;11.106;2023-04-26T07:48:20;12.90;64.00
46356;DHT22;32066;49.474;11.106;2023-04-26T07:50:49;12.80;62.30
46356;DHT22;32066;49.474;11.106;2023-04-26T07:53:20;12.70;63.10
46356;DHT22;32066;49.474;11.106;2023-04-26T07:55:49;12.60;62.40
46356;DHT22;32066;49.474;11.106;2023-04-26T07:58:18;12.60;61.20
46356;DHT22;32066;49.474;11.106;2023-04-26T08:00:47;12.80;61.40
46356;DHT22;32066;49.474;11.106;2023-04-26T08:03:16;12.90;60.70
46356;DHT22;32066;49.474;11.106;2023-04-26T08:05:45;13.00;60.60
46356;DHT22;32066;49.474;11.106;2023-04-26T08:08:14;13.10;60.00
46356;DHT22;32066;49.474;11.106;2023-04-26T08:10:45;13.10;59.40
46356;DHT22;32066;49.474;11.106;2023-04-26T08:13:14;13.20;59.20
46356;DHT22;32066;49.474;11.106;2023-04-26T08:15:42;13.20;59.40
46356;DHT22;32066;49.474;11.106;2023-04-26T08:18:11;13.30;58.90
46356;DHT22;32066;49.474;11.106;2023-04-26T08:20:40;13.20;58.50
46356;DHT22;32066;49.474;11.106;2023-04-26T08:23:08;13.30;58.70
46356;DHT22;32066;49.474;11.106;2023-04-26T08:25:37;13.40;57.70
46356;DHT22;32066;49.474;11.106;2023-04-26T08:28:08;13.30;57.80
46356;DHT22;32066;49.474;11.106;2023-04-26T08:30:39;13.40;57.50
46356;DHT22;32066;49.474;11.106;2023-04-26T08:33:08;13.20;57.40
46356;DHT22;32066;49.474;11.106;2023-04-26T08:35:36;13.20;57.50
46356;DHT22;32066;49.474;11.106;2023-04-26T08:38:05;13.30;57.70
46356;DHT22;32066;49.474;11.106;2023-04-26T08:40:35;13.20;57.80
46356;DHT22;32066;49.474;11.106;2023-04-26T08:43:04;13.40;57.40
46356;DHT22;32066;49.474;11.106;2023-04-26T08:45:36;13.50;57.40
46356;DHT22;32066;49.474;11.106;2023-04-26T08:48:08;13.40;57.20
46356;DHT22;32066;49.474;11.106;2023-04-26T08:50:42;13.40;57.70
46356;DHT22;32066;49.474;11.106;2023-04-26T08:53:13;13.20;57.10
46356;DHT22;32066;49.474;11.106;2023-04-26T08:55:46;13.20;57.80
46356;DHT22;32066;49.474;11.106;2023-04-26T08:58:16;13.10;57.90
46356;DHT22;32066;49.474;11.106;2023-04-26T09:00:49;13.20;57.70
46356;DHT22;32066;49.474;11.106;2023-04-26T09:03:18;13.30;57.70
46356;DHT22;32066;49.474;11.106;2023-04-26T09:05:47;13.60;57.60
46356;DHT22;32066;49.474;11.106;2023-04-26T09:08:16;13.60;56.80
46356;DHT22;32066;49.474;11.106;2023-04-26T09:10:45;13.80;56.20
46356;DHT22;32066;49.474;11.106;2023-04-26T09:13:13;14.00;55.40
46356;DHT22;32066;49.474;11.106;2023-04-26T09:15:42;14.10;55.90
46356;DHT22;32066;49.474;11.106;2023-04-26T09:18:22;14.10;56.30
46356;DHT22;32066;49.474;11.106;2023-04-26T09:21:02;14.30;56.00
46356;DHT22;32066;49.474;11.106;2023-04-26T09:23:31;14.40;55.90
46356;DHT22;32066;49.474;11.106;2023-04-26T09:26:16;14.40;55.60
46356;DHT22;32066;49.474;11.106;2023-04-26T09:28:45;14.50;55.40
46356;DHT22;32066;49.474;11.106;2023-04-26T09:31:35;14.60;54.40
46356;DHT22;32066;49.474;11.106;2023-04-26T09:34:09;14.50;53.80
46356;DHT22;32066;49.474;11.106;2023-04-26T09:36:50;14.30;52.80
46356;DHT22;32066;49.474;11.106;2023-04-26T09:39:31;14.20;53.30
46356;DHT22;32066;49.474;11.106;2023-04-26T09:42:00;14.30;52.20
46356;DHT22;32066;49.474;11.106;2023-04-26T09:44:29;14.50;52.30
46356;DHT22;32066;49.474;11.106;2023-04-26T09:46:59;14.70;51.20
46356;DHT22;32066;49.474;11.106;2023-04-26T09:49:31;14.80;50.80
46356;DHT22;32066;49.474;11.106;2023-04-26T09:52:02;15.00;50.70
46356;DHT22;32066;49.474;11.106;2023-04-26T09:54:38;15.20;50.60
46356;DHT22;32066;49.474;11.106;2023-04-26T09:57:08;15.40;50.10
46356;DHT22;32066;49.474;11.106;2023-04-26T09:59:43;15.40;50.00
46356;DHT22;32066;49.474;11.106;2023-04-26T10:02:13;15.30;49.50
46356;DHT22;32066;49.474;11.106;2023-04-26T10:04:48;15.20;50.00
46356;DHT22;32066;49.474;11.106;2023-04-26T10:07:19;15.10;49.80
46356;DHT22;32066;49.474;11.106;2023-04-26T10:09:48;15.30;49.90
46356;DHT22;32066;49.474;11.106;2023-04-26T10:12:18;15.40;49.80
46356;DHT22;32066;49.474;11.106;2023-04-26T10:14:47;15.50;50.50
46356;DHT22;32066;49.474;11.106;2023-04-26T10:17:18;15.50;50.40
46356;DHT22;32066;49.474;11.106;2023-04-26T10:19:52;15.50;50.20
46356;DHT22;32066;49.474;11.106;2023-04-26T10:22:24;15.50;50.10
46356;DHT22;32066;49.474;11.106;2023-04-26T10:24:54;15.60;50.30
46356;DHT22;32066;49.474;11.106;2023-04-26T10:27:47;15.40;50.10
46356;DHT22;32066;49.474;11.106;2023-04-26T10:30:21;15.40;49.80
46356;DHT22;32066;49.474;11.106;2023-04-26T10:33:19;15.50;49.80
46356;DHT22;32066;49.474;11.106;2023-04-26T10:36:12;15.50;49.20
46356;DHT22;32066;49.474;11.106;2023-04-26T10:41:46;15.50;49.40
46356;DHT22;32066;49.474;11.106;2023-04-26T10:44:39;15.50;50.10
46356;DHT22;32066;49.474;11.106;2023-04-26T10:47:29;15.50;50.40
46356;DHT22;32066;49.474;11.106;2023-04-26T10:50:06;15.40;50.40
46356;DHT22;32066;49.474;11.106;2023-04-26T10:53:04;15.00;49.50
46356;DHT22;32066;49.474;11.106;2023-04-26T10:55:39;15.10;49.40
46356;DHT22;32066;49.474;11.106;2023-04-26T10:58:25;15.10;50.80
46356;DHT22;32066;49.474;11.106;2023-04-26T11:01:03;15.20;50.60
46356;DHT22;32066;49.474;11.106;2023-04-26T11:03:31;15.20;50.20
46356;DHT22;32066;49.474;11.106;2023-04-26T11:06:05;15.20;51.20
46356;DHT22;32066;49.474;11.106;2023-04-26T11:08:37;15.00;50.30
46356;DHT22;32066;49.474;11.106;2023-04-26T11:11:07;15.00;51.40
46356;DHT22;32066;49.474;11.106;2023-04-26T11:13:39;15.00;51.50
46356;DHT22;32066;49.474;11.106;2023-04-26T11:16:09;15.00;50.70
46356;DHT22;32066;49.474;11.106;2023-04-26T11:18:40;14.60;50.10
46356;DHT22;32066;49.474;11.106;2023-04-26T11:21:09;14.50;50.40
46356;DHT22;32066;49.474;11.106;2023-04-26T11:23:52;14.60;50.90
46356;DHT22;32066;49.474;11.106;2023-04-26T11:26:21;14.90;50.40
46356;DHT22;32066;49.474;11.106;2023-04-26T11:28:50;15.20;50.30
46356;DHT22;32066;49.474;11.106;2023-04-26T11:31:18;15.50;50.20
46356;DHT22;32066;49.474;11.106;2023-04-26T11:33:47;15.60;49.90
46356;DHT22;32066;49.474;11.106;2023-04-26T11:36:15;15.50;49.80
46356;DHT22;32066;49.474;11.106;2023-04-26T11:38:48;15.50;49.90
46356;DHT22;32066;49.474;11.106;2023-04-26T11:41:16;15.60;49.60
46356;DHT22;32066;49.474;11.106;2023-04-26T11:43:45;15.50;49.60
46356;DHT22;32066;49.474;11.106;2023-04-26T11:46:14;15.40;48.20
46356;DHT22;32066;49.474;11.106;2023-04-26T11:48:43;15.30;49.40
46356;DHT22;32066;49.474;11.106;2023-04-26T11:51:12;15.30;48.00
46356;DHT22;32066;49.474;11.106;2023-04-26T11:53:41;15.50;48.90
46356;DHT22;32066;49.474;11.106;2023-04-26T11:56:17;15.70;48.10
46356;DHT22;32066;49.474;11.106;2023-04-26T11:58:47;15.80;47.50
46356;DHT22;32066;49.474;11.106;2023-04-26T12:01:20;15.90;47.70
46356;DHT22;32066;49.474;11.106;2023-04-26T12:03:50;16.00;47.70
46356;DHT22;32066;49.474;11.106;2023-04-26T12:06:19;16.00;47.40
46356;DHT22;32066;49.474;11.106;2023-04-26T12:08:49;16.00;48.00
46356;DHT22;32066;49.474;11.106;2023-04-26T12:11:20;15.90;48.10
46356;DHT22;32066;49.474;11.106;2023-04-26T12:13:49;16.00;48.00
46356;DHT22;32066;49.474;11.106;2023-04-26T12:16:17;16.00;49.10
46356;DHT22;32066;49.474;11.106;2023-04-26T12:18:49;16.10;48.30
46356;DHT22;32066;49.474;11.106;2023-04-26T12:21:18;16.10;49.10
46356;DHT22;32066;49.474;11.106;2023-04-26T12:23:47;16.30;47.90
46356;DHT22;32066;49.474;11.106;2023-04-26T12:26:16;16.20;48.50
46356;DHT22;32066;49.474;11.106;2023-04-26T12:28:47;16.10;48.60
46356;DHT22;32066;49.474;11.106;2023-04-26T12:31:16;15.80;47.90
46356;DHT22;32066;49.474;11.106;2023-04-26T12:33:45;16.10;48.90
46356;DHT22;32066;49.474;11.106;2023-04-26T12:36:15;16.40;48.50
46356;DHT22;32066;49.474;11.106;2023-04-26T12:38:44;16.50;48.20
46356;DHT22;32066;49.474;11.106;2023-04-26T12:41:13;16.60;48.70
46356;DHT22;32066;49.474;11.106;2023-04-26T12:43:41;16.20;46.90
46356;DHT22;32066;49.474;11.106;2023-04-26T12:46:13;16.30;46.50
46356;DHT22;32066;49.474;11.106;2023-04-26T12:48:41;16.10;46.40
46356;DHT22;32066;49.474;11.106;2023-04-26T12:51:10;16.10;47.30
46356;DHT22;32066;49.474;11.106;2023-04-26T12:53:39;15.80;46.60
46356;DHT22;32066;49.474;11.106;2023-04-26T12:56:07;15.90;46.40
46356;DHT22;32066;49.474;11.106;2023-04-26T12:58:36;16.00;47.20
46356;DHT22;32066;49.474;11.106;2023-04-26T13:01:04;16.30;47.60
46356;DHT22;32066;49.474;11.106;2023-04-26T13:03:39;16.40;47.10
46356;DHT22;32066;49.474;11.106;2023-04-26T13:06:07;16.70;47.00
46356;DHT22;32066;49.474;11.106;2023-04-26T13:08:40;16.80;47.30
46356;DHT22;32066;49.474;11.106;2023-04-26T13:11:08;16.90;46.00
46356;DHT22;32066;49.474;11.106;2023-04-26T13:13:37;16.60;45.90
46356;DHT22;32066;49.474;11.106;2023-04-26T13:16:06;16.70;46.10
46356;DHT22;32066;49.474;11.106;2023-04-26T13:18:39;16.90;46.50
46356;DHT22;32066;49.474;11.106;2023-04-26T13:21:07;17.10;46.70
46356;DHT22;32066;49.474;11.106;2023-04-26T13:23:36;17.20;46.90
46356;DHT22;32066;49.474;11.106;2023-04-26T13:26:04;17.40;47.00
46356;DHT22;32066;49.474;11.106;2023-04-26T13:28:34;17.40;45.70
46356;DHT22;32066;49.474;11.106;2023-04-26T13:31:03;17.30;46.10
46356;DHT22;32066;49.474;11.106;2023-04-26T13:33:32;17.30;45.50
46356;DHT22;32066;49.474;11.106;2023-04-26T13:36:04;17.30;46.30
46356;DHT22;32066;49.474;11.106;2023-04-26T13:38:32;17.30;45.80
46356;DHT22;32066;49.474;11.106;2023-04-26T13:41:01;17.40;46.10
46356;DHT22;32066;49.474;11.106;2023-04-26T13:43:30;17.40;46.10
46356;DHT22;32066;49.474;11.106;2023-04-26T13:45:59;17.30;46.20
46356;DHT22;32066;49.474;11.106;2023-04-26T13:48:27;17.30;47.30
46356;DHT22;32066;49.474;11.106;2023-04-26T13:50:56;17.40;47.10
46356;DHT22;32066;49.474;11.106;2023-04-26T13:53:27;17.50;46.30
46356;DHT22;32066;49.474;11.106;2023-04-26T13:55:56;17.80;45.80
46356;DHT22;32066;49.474;11.106;2023-04-26T13:58:25;17.90;45.80
46356;DHT22;32066;49.474;11.106;2023-04-26T14:00:56;18.10;45.90
46356;DHT22;32066;49.474;11.106;2023-04-26T14:03:25;18.10;46.50
46356;DHT22;32066;49.474;11.106;2023-04-26T14:05:54;17.80;45.70
46356;DHT22;32066;49.474;11.106;2023-04-26T14:08:29;17.80;46.30
46356;DHT22;32066;49.474;11.106;2023-04-26T14:10:57;18.00;45.80
46356;DHT22;32066;49.474;11.106;2023-04-26T14:13:26;18.20;45.60
46356;DHT22;32066;49.474;11.106;2023-04-26T14:15:55;18.30;45.70
46356;DHT22;32066;49.474;11.106;2023-04-26T14:18:23;18.30;45.30
46356;DHT22;32066;49.474;11.106;2023-04-26T14:20:52;18.20;45.30
46356;DHT22;32066;49.474;11.106;2023-04-26T14:23:23;18.40;45.30
46356;DHT22;32066;49.474;11.106;2023-04-26T14:25:55;18.40;44.90
46356;DHT22;32066;49.474;11.106;2023-04-26T14:28:24;18.30;44.80
46356;DHT22;32066;49.474;11.106;2023-04-26T14:30:54;18.10;44.40
46356;DHT22;32066;49.474;11.106;2023-04-26T14:33:26;18.00;45.20
46356;DHT22;32066;49.474;11.106;2023-04-26T14:35:55;17.90;45.40
46356;DHT22;32066;49.474;11.106;2023-04-26T14:38:23;18.20;45.30
46356;DHT22;32066;49.474;11.106;2023-04-26T14:40:55;18.40;44.60
46356;DHT22;32066;49.474;11.106;2023-04-26T14:43:26;18.40;45.00
46356;DHT22;32066;49.474;11.106;2023-04-26T14:45:55;18.30;44.40
46356;DHT22;32066;49.474;11.106;2023-04-26T14:48:23;18.20;43.60
46356;DHT22;32066;49.474;11.106;2023-04-26T14:50:57;18.10;44.80
46356;DHT22;32066;49.474;11.106;2023-04-26T14:53:25;18.00;44.40
46356;DHT22;32066;49.474;11.106;2023-04-26T14:56:01;18.00;44.00
46356;DHT22;32066;49.474;11.106;2023-04-26T14:58:32;18.10;45.10
46356;DHT22;32066;49.474;11.106;2023-04-26T15:01:03;18.30;45.50
46356;DHT22;32066;49.474;11.106;2023-04-26T15:03:32;18.30;44.80
46356;DHT22;32066;49.474;11.106;2023-04-26T15:06:02;18.20;44.30
46356;DHT22;32066;49.474;11.106;2023-04-26T15:08:32;18.40;44.90
46356;DHT22;32066;49.474;11.106;2023-04-26T15:11:05;18.60;44.80
46356;DHT22;32066;49.474;11.106;2023-04-26T15:13:34;18.70;44.00
46356;DHT22;32066;49.474;11.106;2023-04-26T15:16:03;18.90;44.90
46356;DHT22;32066;49.474;11.106;2023-04-26T15:18:32;19.00;43.90
46356;DHT22;32066;49.474;11.106;2023-04-26T15:21:01;19.20;43.80
46356;DHT22;32066;49.474;11.106;2023-04-26T15:23:30;19.30;44.20
46356;DHT22;32066;49.474;11.106;2023-04-26T15:26:00;19.30;42.80
46356;DHT22;32066;49.474;11.106;2023-04-26T15:28:31;19.40;43.00
46356;DHT22;32066;49.474;11.106;2023-04-26T15:31:02;19.50;43.10
46356;DHT22;32066;49.474;11.106;2023-04-26T15:33:31;19.50;42.70
46356;DHT22;32066;49.474;11.106;2023-04-26T15:36:00;19.50;43.40
46356;DHT22;32066;49.474;11.106;2023-04-26T15:38:28;19.40;43.60
46356;DHT22;32066;49.474;11.106;2023-04-26T15:40:57;19.20;42.40